createdAt,value
2018-12-14T00:00:20.724Z,73.37
2018-12-14T00:02:49.945Z,72.99
2018-12-14T00:05:19.184Z,73.32
2018-12-14T00:07:48.269Z,73.33
2018-12-14T00:10:17.454Z,73.70
2018-12-14T00:12:46.579Z,74.01
2018-12-14T00:15:15.981Z,73.98
2018-12-14T00:17:45.107Z,73.70
2018-12-14T00:20:14.354Z,73.90
2018-12-14T00:22:43.747Z,73.64
2018-12-14T00:25:13.136Z,74.41
2018-12-14T00:32:35.197Z,73.39
2018-12-14T00:35:04.988Z,73.23
2018-12-14T00:37:34.144Z,74.78
2018-12-14T00:40:03.750Z,75.24
2018-12-14T00:42:33.158Z,75.26
2018-12-14T00:45:02.262Z,75.25
2018-12-14T00:47:31.442Z,74.71
2018-12-14T00:50:00.574Z,75.33
2018-12-14T00:52:29.734Z,75.03
2018-12-14T00:54:59.071Z,75.19
2018-12-14T00:57:31.647Z,74.53
2018-12-14T01:00:00.861Z,74.53
2018-12-14T01:02:30.109Z,74.24
2018-12-14T01:04:59.454Z,73.79
2018-12-14T01:07:30.862Z,73.52
2018-12-14T01:09:59.988Z,73.58
2018-12-14T01:12:29.290Z,73.62
2018-12-14T01:14:58.545Z,73.30
2018-12-14T01:17:27.690Z,74.06
2018-12-14T01:19:56.862Z,73.60
2018-12-14T01:22:25.994Z,74.01
2018-12-14T01:24:55.135Z,74.40
2018-12-14T01:27:24.382Z,74.47
2018-12-14T01:29:53.593Z,74.52
2018-12-14T01:32:22.833Z,74.83
2018-12-14T01:34:51.965Z,74.75
2018-12-14T01:37:21.192Z,75.11
2018-12-14T01:39:51.870Z,74.93
2018-12-14T01:42:21.232Z,74.53
2018-12-14T01:44:50.489Z,74.78
2018-12-14T01:47:19.797Z,74.95
2018-12-14T01:49:48.953Z,75.71
2018-12-14T01:52:18.395Z,75.15
2018-12-14T01:54:47.727Z,75.40
2018-12-14T01:57:17.183Z,75.17
2018-12-14T01:59:46.303Z,75.04
2018-12-14T02:02:15.599Z,74.62
2018-12-14T02:04:44.803Z,75.68
2018-12-14T02:07:14.009Z,74.73
2018-12-14T02:09:43.211Z,75.24
2018-12-14T02:12:12.382Z,75.06
2018-12-14T02:14:41.492Z,75.15
2018-12-14T02:17:10.659Z,75.20
2018-12-14T02:19:39.894Z,74.36
2018-12-14T02:22:08.991Z,74.45
2018-12-14T02:24:38.267Z,74.36
2018-12-14T02:27:07.801Z,74.60
2018-12-14T02:29:37.080Z,74.56
2018-12-14T02:32:06.298Z,74.16
2018-12-14T02:34:35.581Z,74.57
2018-12-14T02:37:04.800Z,74.25
2018-12-14T02:39:33.926Z,74.69
2018-12-14T02:42:03.264Z,73.21
2018-12-14T02:44:32.419Z,73.08
2018-12-14T02:47:01.530Z,72.63
2018-12-14T02:49:30.771Z,72.76
2018-12-14T02:51:59.926Z,73.01
2018-12-14T02:54:29.123Z,73.49
2018-12-14T02:56:58.334Z,73.25
2018-12-14T02:59:27.565Z,74.23
2018-12-14T03:01:56.735Z,74.34
2018-12-14T03:04:25.838Z,75.01
2018-12-14T03:06:54.951Z,74.21
2018-12-14T03:09:24.121Z,74.37
2018-12-14T03:11:53.343Z,74.50
2018-12-14T03:14:22.814Z,74.64
2018-12-14T03:16:52.314Z,74.43
2018-12-14T03:19:21.434Z,73.90
2018-12-14T03:21:50.713Z,73.73
2018-12-14T03:24:19.970Z,73.21
2018-12-14T03:26:49.151Z,73.64
2018-12-14T03:29:18.439Z,73.30
2018-12-14T03:31:47.735Z,74.14
2018-12-14T03:34:16.998Z,73.88
2018-12-14T03:36:46.192Z,73.93
2018-12-14T03:39:15.358Z,72.89
2018-12-14T03:41:44.507Z,73.66
2018-12-14T03:44:13.620Z,73.83
2018-12-14T03:46:42.839Z,73.52
2018-12-14T03:49:12.023Z,73.85
2018-12-14T03:51:41.227Z,73.81
2018-12-14T03:54:10.430Z,74.18
2018-12-14T03:56:39.574Z,73.61
2018-12-14T03:59:08.968Z,73.88
2018-12-14T04:01:38.251Z,74.16
2018-12-14T04:04:07.404Z,73.64
2018-12-14T04:06:36.575Z,73.48
2018-12-14T04:09:06.831Z,73.74
2018-12-14T04:11:36.040Z,73.66
2018-12-14T04:14:05.242Z,73.16
2018-12-14T04:16:34.446Z,73.32
2018-12-14T04:19:03.664Z,74.09
2018-12-14T04:21:33.013Z,73.92
2018-12-14T04:24:02.231Z,73.76
2018-12-14T04:26:31.387Z,73.61
2018-12-14T04:29:00.837Z,74.19
2018-12-14T04:31:30.030Z,73.67
2018-12-14T04:33:59.174Z,73.85
2018-12-14T04:36:28.406Z,73.73
2018-12-14T04:38:57.534Z,74.03
2018-12-14T04:41:26.677Z,73.99
2018-12-14T04:43:55.961Z,73.33
2018-12-14T04:46:25.053Z,74.45
2018-12-14T04:48:54.217Z,74.29
2018-12-14T04:51:29.866Z,73.80
2018-12-14T04:53:59.048Z,74.37
2018-12-14T04:56:28.143Z,74.30
2018-12-14T04:58:57.376Z,74.12
2018-12-14T05:01:26.559Z,73.79
2018-12-14T05:03:55.724Z,73.79
2018-12-14T05:06:24.882Z,73.82
2018-12-14T05:08:54.123Z,73.50
2018-12-14T05:11:23.334Z,73.81
2018-12-14T05:13:52.638Z,73.64
2018-12-14T05:16:21.842Z,73.72
2018-12-14T05:18:50.946Z,73.76
2018-12-14T05:21:20.107Z,73.18
2018-12-14T05:23:49.265Z,72.59
2018-12-14T05:26:18.479Z,72.57
2018-12-14T05:28:47.689Z,72.68
2018-12-14T05:31:16.902Z,73.18
2018-12-14T05:33:46.113Z,73.60
2018-12-14T05:36:15.363Z,73.43
2018-12-14T05:38:44.494Z,72.93
2018-12-14T05:41:13.687Z,73.53
2018-12-14T05:43:42.804Z,73.85
2018-12-14T05:46:12.009Z,73.79
2018-12-14T05:48:41.197Z,72.99
2018-12-14T05:51:10.340Z,72.78
2018-12-14T05:53:39.515Z,73.07
2018-12-14T05:56:08.676Z,72.91
2018-12-14T05:58:37.883Z,72.55
2018-12-14T06:01:07.203Z,73.52
2018-12-14T06:03:36.981Z,73.49
2018-12-14T06:06:06.349Z,74.01
2018-12-14T06:08:35.587Z,74.09
2018-12-14T06:11:04.787Z,73.85
2018-12-14T06:13:36.067Z,74.39
2018-12-14T06:16:05.350Z,74.59
2018-12-14T06:18:34.767Z,74.15
2018-12-14T06:21:04.025Z,74.06
2018-12-14T06:23:33.327Z,73.89
2018-12-14T06:26:02.496Z,73.89
2018-12-14T06:28:31.827Z,74.17
2018-12-14T06:31:00.986Z,74.10
2018-12-14T06:33:30.114Z,74.28
2018-12-14T06:36:00.415Z,74.06
2018-12-14T06:38:29.530Z,73.42
2018-12-14T06:40:59.158Z,73.29
2018-12-14T06:43:28.455Z,73.32
2018-12-14T06:45:58.283Z,73.20
2018-12-14T06:48:27.482Z,73.21
2018-12-14T06:50:57.082Z,72.42
2018-12-14T06:53:26.263Z,71.92
2018-12-14T06:55:56.466Z,72.29
2018-12-14T06:58:26.003Z,72.66
2018-12-14T07:00:55.139Z,72.23
2018-12-14T07:03:24.406Z,71.89
2018-12-14T07:05:53.599Z,71.70
2018-12-14T07:08:23.084Z,72.08
2018-12-14T07:10:52.470Z,72.58
2018-12-14T07:13:22.149Z,72.57
2018-12-14T07:15:51.398Z,71.98
2018-12-14T07:18:20.638Z,73.07
2018-12-14T07:20:50.199Z,72.01
2018-12-14T07:23:19.312Z,71.48
2018-12-14T07:25:48.574Z,71.84
2018-12-14T07:28:17.793Z,72.29
2018-12-14T07:30:46.934Z,71.38
2018-12-14T07:33:16.070Z,71.49
2018-12-14T07:35:45.346Z,71.00
2018-12-14T07:38:14.530Z,71.19
2018-12-14T07:40:43.692Z,71.72
2018-12-14T07:43:12.859Z,71.88
2018-12-14T07:45:41.980Z,72.11
2018-12-14T07:48:11.369Z,72.14
2018-12-14T07:50:40.605Z,72.14
2018-12-14T07:53:09.731Z,72.13
2018-12-14T07:55:38.907Z,71.96
2018-12-14T07:58:08.055Z,71.21
2018-12-14T08:00:37.223Z,71.78
2018-12-14T08:03:06.461Z,72.10
2018-12-14T08:05:35.737Z,72.34
2018-12-14T08:08:04.975Z,71.80
2018-12-14T08:10:34.341Z,71.17
2018-12-14T08:13:03.633Z,71.56
2018-12-14T08:15:32.953Z,71.02
2018-12-14T08:18:02.252Z,70.97
2018-12-14T08:20:34.455Z,70.14
2018-12-14T08:23:03.551Z,70.08
2018-12-14T08:25:32.878Z,70.88
2018-12-14T08:28:01.959Z,71.20
2018-12-14T08:30:31.506Z,71.26
2018-12-14T08:33:00.704Z,71.81
2018-12-14T08:35:29.867Z,71.69
2018-12-14T08:37:58.954Z,72.22
2018-12-14T08:40:28.093Z,71.59
2018-12-14T08:42:57.511Z,71.15
2018-12-14T08:45:26.706Z,71.57
2018-12-14T08:47:56.163Z,71.73
2018-12-14T08:50:25.305Z,70.82
2018-12-14T08:52:54.446Z,72.00
2018-12-14T08:55:23.565Z,71.79
2018-12-14T08:57:53.026Z,71.33
2018-12-14T09:00:22.238Z,71.58
2018-12-14T09:02:51.371Z,71.51
2018-12-14T09:05:20.509Z,70.96
2018-12-14T09:07:49.673Z,71.48
2018-12-14T09:10:18.781Z,71.61
2018-12-14T09:12:47.987Z,71.46
2018-12-14T09:15:17.087Z,71.52
2018-12-14T09:17:46.366Z,71.21
2018-12-14T09:20:15.619Z,72.01
2018-12-14T09:22:44.885Z,71.33
2018-12-14T09:25:14.083Z,71.54
2018-12-14T09:27:43.183Z,71.17
2018-12-14T09:30:12.267Z,71.90
2018-12-14T09:32:41.388Z,71.49
2018-12-14T09:35:10.617Z,71.16
2018-12-14T09:37:39.713Z,71.48
2018-12-14T09:40:09.177Z,71.26
2018-12-14T09:42:38.448Z,70.80
2018-12-14T09:45:07.945Z,71.29
2018-12-14T09:50:19.004Z,71.64
2018-12-14T09:52:48.170Z,71.54
2018-12-14T09:55:17.278Z,71.68
2018-12-14T09:57:46.426Z,71.07
2018-12-14T10:00:15.580Z,71.64
2018-12-14T10:02:44.690Z,70.79
2018-12-14T10:05:13.936Z,71.42
2018-12-14T10:07:46.828Z,71.24
2018-12-14T10:10:14.429Z,70.71
2018-12-14T10:12:43.596Z,70.34
2018-12-14T10:15:12.818Z,70.27
2018-12-14T10:17:42.052Z,71.34
2018-12-14T10:20:11.402Z,71.56
2018-12-14T10:22:41.648Z,71.25
2018-12-14T10:25:11.170Z,71.29
2018-12-14T10:27:40.365Z,71.73
2018-12-14T10:30:10.166Z,70.87
2018-12-14T10:32:39.382Z,70.15
2018-12-14T10:35:09.512Z,69.65
2018-12-14T10:37:38.706Z,69.53
2018-12-14T10:40:09.664Z,69.72
2018-12-14T10:42:38.820Z,70.32
2018-12-14T10:45:08.310Z,69.52
2018-12-14T10:47:37.566Z,69.43
2018-12-14T10:50:07.272Z,69.43
2018-12-14T10:52:36.469Z,70.14
2018-12-14T10:55:06.465Z,69.85
2018-12-14T10:57:36.082Z,70.19
2018-12-14T11:00:11.735Z,69.76
2018-12-14T11:02:40.831Z,70.19
2018-12-14T11:05:09.975Z,69.64
2018-12-14T11:07:39.236Z,70.52
2018-12-14T11:10:10.043Z,70.40
2018-12-14T11:12:39.265Z,70.41
2018-12-14T11:15:08.565Z,70.72
2018-12-14T11:17:37.718Z,70.53
2018-12-14T11:20:08.894Z,71.04
2018-12-14T11:22:38.038Z,70.19
2018-12-14T11:25:08.303Z,70.03
2018-12-14T11:27:37.398Z,69.76
2018-12-14T11:30:08.689Z,69.88
2018-12-14T11:32:37.782Z,70.54
2018-12-14T11:35:07.063Z,70.86
2018-12-14T11:37:36.169Z,69.82
2018-12-14T11:40:07.435Z,70.40
2018-12-14T11:42:36.535Z,70.36
2018-12-14T11:45:07.626Z,70.62
2018-12-14T11:47:36.847Z,70.39
2018-12-14T11:50:12.316Z,70.26
2018-12-14T11:52:41.395Z,70.24
2018-12-14T11:55:11.510Z,69.84
2018-12-14T11:57:40.667Z,70.37
2018-12-14T12:00:13.334Z,70.45
2018-12-14T12:02:43.227Z,70.14
2018-12-14T12:05:12.780Z,70.13
2018-12-14T12:07:43.034Z,70.40
2018-12-14T12:10:12.282Z,70.66
2018-12-14T12:12:41.658Z,70.85
2018-12-14T12:15:10.836Z,71.02
2018-12-14T12:17:40.715Z,71.13
2018-12-14T12:20:10.120Z,71.10
2018-12-14T12:22:39.212Z,71.08
2018-12-14T12:25:08.524Z,70.46
2018-12-14T12:27:37.726Z,69.93
2018-12-14T12:30:08.138Z,70.15
2018-12-14T12:32:37.483Z,70.02
2018-12-14T12:35:08.021Z,69.90
2018-12-14T12:37:37.306Z,68.78
2018-12-14T12:40:06.541Z,69.13
2018-12-14T12:42:35.622Z,69.80
2018-12-14T12:45:05.600Z,68.99
2018-12-14T12:47:34.810Z,69.82
2018-12-14T12:50:04.278Z,70.17
2018-12-14T12:52:33.488Z,69.25
2018-12-14T12:55:02.678Z,69.75
2018-12-14T12:57:31.762Z,69.70
2018-12-14T13:00:00.858Z,70.30
2018-12-14T13:02:29.949Z,70.94
2018-12-14T13:04:59.245Z,70.46
2018-12-14T13:07:28.369Z,70.42
2018-12-14T13:09:57.473Z,68.97
2018-12-14T13:12:26.573Z,69.39
2018-12-14T13:14:55.971Z,68.77
2018-12-14T13:17:25.143Z,69.70
2018-12-14T13:19:54.365Z,69.20
2018-12-14T13:22:23.483Z,69.18
2018-12-14T13:24:52.741Z,68.84
2018-12-14T13:27:21.815Z,69.79
2018-12-14T13:29:51.051Z,69.60
2018-12-14T13:32:20.327Z,69.30
2018-12-14T13:34:49.415Z,69.52
2018-12-14T13:37:18.507Z,70.12
2018-12-14T13:39:47.841Z,69.82
2018-12-14T13:42:16.942Z,69.81
2018-12-14T13:44:46.648Z,70.11
2018-12-14T13:47:16.348Z,69.41
2018-12-14T13:49:45.555Z,69.29
2018-12-14T13:52:14.641Z,69.72
2018-12-14T13:54:43.754Z,69.46
2018-12-14T13:57:12.858Z,69.18
2018-12-14T13:59:49.084Z,70.04
2018-12-14T14:02:18.294Z,69.46
2018-12-14T14:04:47.472Z,70.07
2018-12-14T14:07:16.659Z,69.87
2018-12-14T14:09:45.791Z,69.58
2018-12-14T14:12:15.079Z,69.42
2018-12-14T14:14:44.185Z,69.03
2018-12-14T14:17:13.292Z,68.21
2018-12-14T14:19:42.795Z,68.80
2018-12-14T14:22:12.111Z,68.36
2018-12-14T14:24:41.220Z,68.97
2018-12-14T14:27:10.372Z,68.49
2018-12-14T14:29:39.538Z,67.98
2018-12-14T14:32:08.991Z,68.58
2018-12-14T14:34:38.757Z,68.56
2018-12-14T14:37:07.971Z,69.10
2018-12-14T14:39:37.090Z,69.14
2018-12-14T14:42:06.189Z,69.07
2018-12-14T14:44:35.280Z,69.61
2018-12-14T14:47:04.646Z,69.46
2018-12-14T14:49:33.770Z,70.20
2018-12-14T14:52:02.879Z,69.51
2018-12-14T14:54:31.976Z,69.47
2018-12-14T14:57:01.160Z,69.53
2018-12-14T14:59:30.338Z,69.05
2018-12-14T15:01:59.654Z,69.36
2018-12-14T15:04:28.833Z,69.82
2018-12-14T15:06:57.914Z,69.47
2018-12-14T15:09:27.028Z,69.02
2018-12-14T15:11:56.132Z,69.85
2018-12-14T15:14:25.487Z,69.41
2018-12-14T15:16:54.616Z,69.26
2018-12-14T15:19:23.712Z,69.75
2018-12-14T15:21:52.950Z,69.11
2018-12-14T15:24:22.150Z,69.01
2018-12-14T15:26:51.310Z,69.01
2018-12-14T15:29:20.480Z,69.50
2018-12-14T15:31:49.577Z,69.77
2018-12-14T15:34:18.662Z,69.23
2018-12-14T15:36:47.907Z,69.63
2018-12-14T15:39:17.105Z,69.30
2018-12-14T15:41:46.215Z,69.44
2018-12-14T15:44:15.324Z,69.40
2018-12-14T15:46:44.502Z,69.65
2018-12-14T15:49:13.713Z,69.73
2018-12-14T15:51:42.913Z,69.11
2018-12-14T15:54:12.014Z,69.92
2018-12-14T15:56:41.139Z,69.54
2018-12-14T15:59:10.263Z,69.24
2018-12-14T16:01:39.372Z,69.04
2018-12-14T16:04:08.567Z,69.10
2018-12-14T16:06:37.697Z,69.46
2018-12-14T16:09:07.790Z,69.96
2018-12-14T16:11:36.981Z,69.22
2018-12-14T16:14:06.682Z,69.12
2018-12-14T16:16:35.827Z,68.46
2018-12-14T16:19:05.193Z,68.79
2018-12-14T16:21:34.485Z,68.92
2018-12-14T16:24:03.667Z,69.13
2018-12-14T16:26:32.950Z,69.10
2018-12-14T16:29:02.075Z,69.22
2018-12-14T16:31:31.164Z,68.98
2018-12-14T16:34:00.439Z,68.79
2018-12-14T16:36:29.635Z,69.07
2018-12-14T16:38:58.961Z,68.94
2018-12-14T16:41:28.055Z,69.19
2018-12-14T16:43:57.142Z,68.96
2018-12-14T16:46:26.418Z,69.76
2018-12-14T16:48:55.622Z,68.53
2018-12-14T16:51:24.744Z,69.63
2018-12-14T16:53:59.229Z,70.07
2018-12-14T16:56:28.525Z,69.09
2018-12-14T16:58:57.983Z,69.14
2018-12-14T17:01:27.255Z,70.14
2018-12-14T17:03:56.531Z,69.17
2018-12-14T17:06:25.637Z,69.56
2018-12-14T17:08:55.010Z,69.89
2018-12-14T17:11:24.340Z,69.61
2018-12-14T17:13:53.545Z,69.32
2018-12-14T17:16:22.755Z,69.29
2018-12-14T17:18:52.057Z,69.77
2018-12-14T17:21:21.238Z,69.38
2018-12-14T17:23:50.558Z,69.44
2018-12-14T17:26:19.701Z,69.00
2018-12-14T17:28:48.866Z,69.82
2018-12-14T17:31:17.983Z,70.15
2018-12-14T17:33:47.221Z,69.25
2018-12-14T17:36:16.310Z,69.15
2018-12-14T17:38:45.404Z,68.96
2018-12-14T17:41:14.581Z,69.24
2018-12-14T17:43:43.707Z,69.79
2018-12-14T17:46:12.856Z,70.02
2018-12-14T17:48:43.333Z,69.38
2018-12-14T17:51:12.603Z,69.24
2018-12-14T17:53:41.697Z,69.38
2018-12-14T17:56:10.800Z,69.54
2018-12-14T17:58:40.009Z,68.83
2018-12-14T18:01:09.156Z,68.73
2018-12-14T18:03:38.619Z,68.83
2018-12-14T18:06:07.739Z,68.35
2018-12-14T18:08:36.842Z,67.88
2018-12-14T18:11:06.194Z,67.87
2018-12-14T18:13:35.300Z,68.73
2018-12-14T18:16:04.691Z,68.33
2018-12-14T18:18:33.817Z,68.86
2018-12-14T18:21:02.958Z,69.87
2018-12-14T18:23:32.264Z,69.54
2018-12-14T18:26:01.375Z,69.44
2018-12-14T18:28:30.579Z,70.02
2018-12-14T18:30:59.705Z,69.48
2018-12-14T18:33:29.594Z,69.41
2018-12-14T18:35:58.933Z,69.81
2018-12-14T18:38:28.058Z,69.18
2018-12-14T18:40:57.787Z,68.71
2018-12-14T18:43:27.753Z,68.46
2018-12-14T18:45:57.664Z,68.71
2018-12-14T18:48:28.035Z,69.15
2018-12-14T18:50:57.309Z,68.35
2018-12-14T18:53:26.585Z,68.31
2018-12-14T18:55:55.740Z,68.31
2018-12-14T18:58:24.841Z,68.69
2018-12-14T19:00:54.201Z,69.19
2018-12-14T19:03:23.435Z,69.26
2018-12-14T19:05:52.618Z,70.01
2018-12-14T19:08:21.830Z,69.55
2018-12-14T19:10:50.966Z,68.84
2018-12-14T19:13:20.067Z,69.54
2018-12-14T19:15:49.188Z,69.42
2018-12-14T19:18:18.411Z,68.84
2018-12-14T19:20:47.511Z,69.44
2018-12-14T19:23:19.664Z,68.87
2018-12-14T19:25:47.751Z,69.40
2018-12-14T19:28:17.393Z,68.71
2018-12-14T19:30:46.604Z,68.33
2018-12-14T19:33:16.020Z,67.52
2018-12-14T19:35:45.142Z,68.55
2018-12-14T19:38:14.544Z,68.01
2018-12-14T19:40:43.739Z,69.37
2018-12-14T19:43:13.000Z,68.66
2018-12-14T19:45:42.297Z,68.67
2018-12-14T19:48:11.510Z,68.48
2018-12-14T19:50:40.622Z,69.37
2018-12-14T19:53:09.786Z,69.31
2018-12-14T19:55:38.949Z,69.25
2018-12-14T19:58:08.143Z,69.00
2018-12-14T20:00:37.298Z,69.11
2018-12-14T20:03:06.422Z,68.96
2018-12-14T20:05:35.673Z,68.63
2018-12-14T20:08:04.962Z,69.59
2018-12-14T20:10:34.234Z,68.85
2018-12-14T20:13:03.386Z,68.12
2018-12-14T20:18:07.453Z,68.53
2018-12-14T20:20:36.638Z,68.39
2018-12-14T20:23:05.830Z,68.46
2018-12-14T20:25:35.009Z,68.80
2018-12-14T20:28:04.207Z,69.20
2018-12-14T20:30:33.314Z,68.21
2018-12-14T20:33:02.586Z,68.24
2018-12-14T20:35:31.924Z,68.36
2018-12-14T20:38:01.024Z,68.76
2018-12-14T20:40:30.428Z,68.50
2018-12-14T20:42:59.535Z,69.17
2018-12-14T20:45:28.645Z,68.98
2018-12-14T20:47:57.797Z,69.06
2018-12-14T20:50:28.101Z,68.49
2018-12-14T20:52:59.126Z,68.64
2018-12-14T20:55:28.639Z,68.58
2018-12-14T20:57:57.751Z,68.98
2018-12-14T21:00:26.977Z,69.10
2018-12-14T21:02:56.080Z,68.54
2018-12-14T21:05:25.177Z,69.10
2018-12-14T21:07:54.363Z,69.04
2018-12-14T21:10:23.485Z,69.00
2018-12-14T21:12:52.701Z,68.65
2018-12-14T21:15:21.937Z,68.82
2018-12-14T21:17:51.188Z,68.50
2018-12-14T21:20:20.397Z,68.58
2018-12-14T21:22:49.563Z,69.55
2018-12-14T21:25:18.669Z,69.39
2018-12-14T21:27:47.783Z,68.77
2018-12-14T21:30:16.932Z,68.79
2018-12-14T21:32:46.062Z,69.34
2018-12-14T21:35:15.282Z,69.31
2018-12-14T21:37:44.427Z,69.35
2018-12-14T21:40:13.614Z,69.34
2018-12-14T21:42:42.925Z,69.17
2018-12-14T21:45:12.354Z,69.39
2018-12-14T21:47:41.451Z,69.02
2018-12-14T21:50:10.685Z,69.32
2018-12-14T21:52:39.874Z,69.13
2018-12-14T21:55:09.502Z,69.31
2018-12-14T21:57:39.491Z,69.36
2018-12-14T22:00:11.228Z,69.14
2018-12-14T22:02:40.559Z,69.39
2018-12-14T22:05:09.930Z,68.91
2018-12-14T22:07:39.400Z,69.12
2018-12-14T22:10:09.507Z,68.71
2018-12-14T22:12:38.646Z,68.88
2018-12-14T22:15:08.011Z,69.33
2018-12-14T22:17:37.179Z,68.73
2018-12-14T22:20:06.478Z,69.41
2018-12-14T22:22:35.663Z,68.75
2018-12-14T22:25:04.978Z,69.36
2018-12-14T22:30:09.618Z,69.31
2018-12-14T22:32:38.736Z,68.55
2018-12-14T22:35:07.949Z,68.88
2018-12-14T22:37:37.119Z,69.41
2018-12-14T22:40:07.526Z,69.27
2018-12-14T22:42:36.701Z,69.26
2018-12-14T22:45:07.077Z,69.12
2018-12-14T22:47:36.176Z,69.55
2018-12-14T22:50:05.961Z,69.44
2018-12-14T22:52:35.160Z,68.58
2018-12-14T22:55:04.864Z,68.66
2018-12-14T22:57:34.219Z,69.28
2018-12-14T23:00:04.864Z,69.15
2018-12-14T23:02:36.332Z,70.05
2018-12-14T23:05:05.720Z,69.07
2018-12-14T23:07:36.550Z,69.67
2018-12-14T23:10:06.518Z,69.19
2018-12-14T23:12:35.595Z,69.28
2018-12-14T23:15:05.234Z,70.05
2018-12-14T23:17:34.477Z,69.58
2018-12-14T23:20:04.132Z,69.44
2018-12-14T23:22:33.223Z,69.43
2018-12-14T23:25:02.438Z,69.16
2018-12-14T23:27:31.706Z,69.55
2018-12-14T23:30:00.891Z,69.75
2018-12-14T23:32:30.110Z,70.24
2018-12-14T23:34:59.222Z,69.76
2018-12-14T23:37:28.325Z,69.46
2018-12-14T23:39:57.415Z,69.32
2018-12-14T23:42:26.654Z,68.79
2018-12-14T23:44:55.756Z,69.56
2018-12-14T23:47:24.854Z,69.82
2018-12-14T23:49:53.942Z,69.36
2018-12-14T23:52:23.130Z,69.85
2018-12-14T23:54:52.258Z,69.82
2018-12-14T23:57:21.471Z,70.31
2018-12-14T23:59:50.659Z,69.68
